createdAt,value
2022-11-25T00:00:11.720Z,10.13
2022-11-25T00:02:44.415Z,10.08
2022-11-25T00:05:11.467Z,10.11
2022-11-25T00:07:39.893Z,10.11
2022-11-25T00:10:08.217Z,10.10
2022-11-25T00:12:35.317Z,10.09
2022-11-25T00:15:02.525Z,10.07
2022-11-25T00:17:30.013Z,10.04
2022-11-25T00:19:57.031Z,10.04
2022-11-25T00:22:24.091Z,10.01
2022-11-25T00:24:52.389Z,10.06
2022-11-25T00:27:19.338Z,10.08
2022-11-25T00:29:46.344Z,10.07
2022-11-25T00:32:13.332Z,10.05
2022-11-25T00:34:40.228Z,10.04
2022-11-25T00:37:07.197Z,10.00
2022-11-25T00:39:34.183Z,9.98
2022-11-25T00:42:21.065Z,10.00
2022-11-25T00:44:49.455Z,10.00
2022-11-25T00:47:19.382Z,10.02
2022-11-25T00:49:48.769Z,10.05
2022-11-25T00:52:18.027Z,10.07
2022-11-25T00:54:47.491Z,10.07
2022-11-25T00:57:17.447Z,10.08
2022-11-25T00:59:44.703Z,10.12
2022-11-25T01:02:13.376Z,10.16
2022-11-25T01:04:40.507Z,10.17
2022-11-25T01:07:07.823Z,10.17
2022-11-25T01:09:35.874Z,10.21
2022-11-25T01:12:04.041Z,10.22
2022-11-25T01:14:32.812Z,10.20
2022-11-25T01:17:00.180Z,10.17
2022-11-25T01:19:27.406Z,10.14
2022-11-25T01:21:54.370Z,10.14
2022-11-25T01:24:23.900Z,10.16
2022-11-25T01:26:51.216Z,10.14
2022-11-25T01:29:19.350Z,10.14
2022-11-25T01:31:48.658Z,10.17
2022-11-25T01:34:18.455Z,10.12
2022-11-25T01:36:45.913Z,10.11
2022-11-25T01:39:18.799Z,10.08
2022-11-25T01:41:47.269Z,10.06
2022-11-25T01:44:17.544Z,10.03
2022-11-25T01:47:00.546Z,9.98
2022-11-25T01:49:36.492Z,9.94
2022-11-25T01:52:13.982Z,9.93
2022-11-25T01:54:48.305Z,9.94
2022-11-25T01:57:24.636Z,9.88
2022-11-25T01:59:56.403Z,9.82
2022-11-25T02:02:25.153Z,9.87
2022-11-25T02:04:52.897Z,9.94
2022-11-25T02:07:29.529Z,9.94
2022-11-25T02:09:59.776Z,9.94
2022-11-25T02:12:28.415Z,9.95
2022-11-25T02:14:58.523Z,9.97
2022-11-25T02:17:27.040Z,10.00
2022-11-25T02:20:04.386Z,9.99
2022-11-25T02:22:56.426Z,9.97
2022-11-25T02:25:28.119Z,9.99
2022-11-25T02:28:02.639Z,10.02
2022-11-25T02:30:29.807Z,10.04
2022-11-25T02:32:59.304Z,10.04
2022-11-25T02:35:31.551Z,10.00
2022-11-25T02:38:05.551Z,9.96
2022-11-25T02:40:40.735Z,9.92
2022-11-25T02:43:07.817Z,9.92
2022-11-25T02:45:56.770Z,9.90
2022-11-25T02:48:45.797Z,9.92
2022-11-25T02:51:15.000Z,9.92
2022-11-25T02:53:42.426Z,9.96
2022-11-25T02:56:14.420Z,9.97
2022-11-25T02:58:42.273Z,9.99
2022-11-25T03:01:10.085Z,10.00
2022-11-25T03:03:38.079Z,9.99
2022-11-25T03:06:05.460Z,10.01
2022-11-25T03:08:32.420Z,10.01
2022-11-25T03:10:59.414Z,10.04
2022-11-25T03:13:27.884Z,10.10
2022-11-25T03:15:54.874Z,10.13
2022-11-25T03:18:21.985Z,10.17
2022-11-25T03:20:53.432Z,10.16
2022-11-25T03:23:20.670Z,10.18
2022-11-25T03:25:47.775Z,10.22
2022-11-25T03:28:15.075Z,10.22
2022-11-25T03:30:43.795Z,10.25
2022-11-25T03:33:10.770Z,10.23
2022-11-25T03:35:37.714Z,10.27
2022-11-25T03:38:05.002Z,10.30
2022-11-25T03:40:31.941Z,10.35
2022-11-25T03:42:58.899Z,10.36
2022-11-25T03:45:25.860Z,10.40
2022-11-25T03:47:54.148Z,10.43
2022-11-25T03:50:21.328Z,10.43
2022-11-25T03:52:48.284Z,10.42
2022-11-25T03:55:15.415Z,10.45
2022-11-25T03:57:42.434Z,10.42
2022-11-25T04:00:11.217Z,10.41
2022-11-25T04:02:40.517Z,10.35
2022-11-25T04:05:09.971Z,10.29
2022-11-25T04:07:37.034Z,10.31
2022-11-25T04:10:05.479Z,10.35
2022-11-25T04:12:47.156Z,10.32
2022-11-25T04:15:16.104Z,10.35
2022-11-25T04:17:43.644Z,10.36
2022-11-25T04:20:14.292Z,10.41
2022-11-25T04:22:41.557Z,10.45
2022-11-25T04:25:09.727Z,10.47
2022-11-25T04:27:36.729Z,10.47
2022-11-25T04:30:04.756Z,10.50
2022-11-25T04:32:31.750Z,10.48
2022-11-25T04:34:58.705Z,10.51
2022-11-25T04:37:26.978Z,10.53
2022-11-25T04:39:54.005Z,10.56
2022-11-25T04:42:34.207Z,10.62
2022-11-25T04:45:22.588Z,10.66
2022-11-25T04:47:51.096Z,10.68
2022-11-25T04:50:21.737Z,10.66
2022-11-25T04:52:50.386Z,10.71
2022-11-25T04:55:17.591Z,10.74
2022-11-25T04:57:44.527Z,10.78
2022-11-25T05:00:13.116Z,10.80
2022-11-25T05:02:40.390Z,10.83
2022-11-25T05:05:08.723Z,10.84
2022-11-25T05:07:35.734Z,10.88
2022-11-25T05:10:05.545Z,10.99
2022-11-25T05:12:32.631Z,11.03
2022-11-25T05:14:59.576Z,11.01
2022-11-25T05:17:30.067Z,11.04
2022-11-25T05:19:58.016Z,11.03
2022-11-25T05:22:28.101Z,11.05
2022-11-25T05:24:55.695Z,11.05
2022-11-25T05:27:25.637Z,11.03
2022-11-25T05:29:56.239Z,10.94
2022-11-25T05:32:23.653Z,10.96
2022-11-25T05:34:50.597Z,10.97
2022-11-25T05:37:23.962Z,10.94
2022-11-25T05:39:51.724Z,10.93
2022-11-25T05:42:19.687Z,10.92
2022-11-25T05:44:47.943Z,10.86
2022-11-25T05:47:14.923Z,10.82
2022-11-25T05:49:42.297Z,10.83
2022-11-25T05:52:09.258Z,10.76
2022-11-25T05:54:36.655Z,10.78
2022-11-25T05:57:03.921Z,10.71
2022-11-25T05:59:30.995Z,10.72
2022-11-25T06:01:59.279Z,10.70
2022-11-25T06:04:26.256Z,10.70
2022-11-25T06:06:53.455Z,10.70
2022-11-25T06:09:20.426Z,10.72
2022-11-25T06:11:47.376Z,10.73
2022-11-25T06:14:17.549Z,10.71
2022-11-25T06:16:44.683Z,10.72
2022-11-25T06:19:15.922Z,10.77
2022-11-25T06:21:42.910Z,10.72
2022-11-25T06:24:09.890Z,10.70
2022-11-25T06:26:37.325Z,10.75
2022-11-25T06:29:04.652Z,10.79
2022-11-25T06:31:31.641Z,10.79
2022-11-25T06:33:58.584Z,10.82
2022-11-25T06:36:26.854Z,10.86
2022-11-25T06:38:54.804Z,10.92
2022-11-25T06:41:22.613Z,10.92
2022-11-25T06:43:49.885Z,10.94
2022-11-25T06:46:24.582Z,10.92
2022-11-25T06:48:52.738Z,10.93
2022-11-25T06:51:20.106Z,10.92
2022-11-25T06:53:48.432Z,10.92
2022-11-25T06:56:18.940Z,10.92
2022-11-25T06:58:47.957Z,10.92
2022-11-25T07:01:18.272Z,10.89
2022-11-25T07:03:47.666Z,10.84
2022-11-25T07:06:16.453Z,10.83
2022-11-25T07:08:44.907Z,10.83
2022-11-25T07:11:17.571Z,10.83
2022-11-25T07:13:44.656Z,10.82
2022-11-25T07:16:15.219Z,10.83
2022-11-25T07:18:42.346Z,10.81
2022-11-25T07:21:14.175Z,10.80
2022-11-25T07:23:42.964Z,10.81
2022-11-25T07:26:14.502Z,10.79
2022-11-25T07:28:43.597Z,10.79
2022-11-25T07:31:27.639Z,10.78
2022-11-25T07:33:59.244Z,10.72
2022-11-25T07:36:26.853Z,10.68
2022-11-25T07:38:54.423Z,10.72
2022-11-25T07:41:26.064Z,10.75
2022-11-25T07:43:56.227Z,10.74
2022-11-25T07:46:27.433Z,10.74
2022-11-25T07:48:57.320Z,10.78
2022-11-25T07:51:27.757Z,10.83
2022-11-25T07:53:57.355Z,10.92
2022-11-25T07:56:26.311Z,11.00
2022-11-25T07:58:53.950Z,11.07
2022-11-25T08:01:21.663Z,11.15
2022-11-25T08:03:51.135Z,11.20
2022-11-25T08:06:22.753Z,11.22
2022-11-25T08:08:52.751Z,11.27
2022-11-25T08:11:22.801Z,11.31
2022-11-25T08:13:51.724Z,11.36
2022-11-25T08:16:21.532Z,11.38
2022-11-25T08:18:49.681Z,11.41
2022-11-25T08:21:18.285Z,11.42
2022-11-25T08:23:49.275Z,11.42
2022-11-25T08:26:19.930Z,11.45
2022-11-25T08:28:47.765Z,11.51
2022-11-25T08:31:19.597Z,11.51
2022-11-25T08:33:48.319Z,11.49
2022-11-25T08:36:16.793Z,11.39
2022-11-25T08:38:48.505Z,11.38
2022-11-25T08:41:22.492Z,11.36
2022-11-25T08:43:50.744Z,11.41
2022-11-25T08:46:26.394Z,11.45
2022-11-25T08:48:53.887Z,11.52
2022-11-25T08:51:24.271Z,11.61
2022-11-25T08:54:04.311Z,11.69
2022-11-25T08:56:41.918Z,11.70
2022-11-25T08:59:09.305Z,11.72
2022-11-25T09:01:38.248Z,11.77
2022-11-25T09:04:07.118Z,11.78
2022-11-25T09:06:34.135Z,11.85
2022-11-25T09:09:01.791Z,11.91
2022-11-25T09:11:29.313Z,11.97
2022-11-25T09:13:56.543Z,12.05
2022-11-25T09:16:26.583Z,12.10
2022-11-25T09:18:56.281Z,12.13
2022-11-25T09:21:25.474Z,12.16
2022-11-25T09:23:54.464Z,12.21
2022-11-25T09:26:25.612Z,12.22
2022-11-25T09:28:56.451Z,12.22
2022-11-25T09:31:24.550Z,12.24
2022-11-25T09:33:52.539Z,12.24
2022-11-25T09:36:21.726Z,12.28
2022-11-25T09:38:49.169Z,12.31
2022-11-25T09:41:57.711Z,12.35
2022-11-25T09:45:11.107Z,12.35
2022-11-25T09:47:57.258Z,12.35
2022-11-25T09:50:45.872Z,12.46
2022-11-25T09:53:34.863Z,12.55
2022-11-25T09:56:09.169Z,12.63
2022-11-25T09:58:50.392Z,12.71
2022-11-25T10:01:22.932Z,12.73
2022-11-25T10:03:58.169Z,12.67
2022-11-25T10:06:28.138Z,12.68
2022-11-25T10:09:00.671Z,12.74
2022-11-25T10:11:44.451Z,12.76
2022-11-25T10:14:23.177Z,12.77
2022-11-25T10:16:58.156Z,12.76
2022-11-25T10:19:43.795Z,12.71
2022-11-25T10:22:25.689Z,12.66
2022-11-25T10:24:58.720Z,12.74
2022-11-25T10:27:41.573Z,12.79
2022-11-25T10:30:23.724Z,12.84
2022-11-25T10:33:02.483Z,12.88
2022-11-25T10:35:49.223Z,12.93
2022-11-25T10:38:26.124Z,12.93
2022-11-25T10:40:59.069Z,12.97
2022-11-25T10:43:31.698Z,12.98
2022-11-25T10:46:11.414Z,12.95
2022-11-25T10:48:55.077Z,12.93
2022-11-25T10:51:38.278Z,12.92
2022-11-25T10:54:25.631Z,12.92
2022-11-25T10:56:58.903Z,12.93
2022-11-25T10:59:34.245Z,12.95
2022-11-25T11:02:20.209Z,12.97
2022-11-25T11:04:58.752Z,13.07
2022-11-25T11:07:30.716Z,13.08
2022-11-25T11:10:17.860Z,13.08
2022-11-25T11:12:58.727Z,13.18
2022-11-25T11:15:30.195Z,13.25
2022-11-25T11:18:13.443Z,13.30
2022-11-25T11:20:47.901Z,13.41
2022-11-25T11:23:16.581Z,13.48
2022-11-25T11:25:56.378Z,13.55
2022-11-25T11:28:33.058Z,13.62
2022-11-25T11:31:04.055Z,13.65
2022-11-25T11:33:40.716Z,13.72
2022-11-25T11:36:39.024Z,13.85
2022-11-25T11:39:28.931Z,14.00
2022-11-25T11:42:07.864Z,14.09
2022-11-25T11:44:55.190Z,14.48
2022-11-25T11:47:34.331Z,14.46
2022-11-25T11:50:26.878Z,14.44
2022-11-25T11:53:21.549Z,14.48
2022-11-25T11:56:34.097Z,14.61
2022-11-25T11:59:17.474Z,14.70
2022-11-25T12:02:13.800Z,14.70
2022-11-25T12:04:46.890Z,14.66
2022-11-25T12:07:22.621Z,14.70
2022-11-25T12:09:57.319Z,14.77
2022-11-25T12:12:36.059Z,14.85
2022-11-25T12:15:15.359Z,14.96
2022-11-25T12:17:53.043Z,15.04
2022-11-25T12:20:36.129Z,15.06
2022-11-25T12:23:12.751Z,15.13
2022-11-25T12:25:43.056Z,15.21
2022-11-25T12:28:17.992Z,15.33
2022-11-25T12:31:05.115Z,15.47
2022-11-25T12:33:49.803Z,15.57
2022-11-25T12:36:24.547Z,15.70
2022-11-25T12:38:59.500Z,15.75
2022-11-25T12:41:39.714Z,15.74
2022-11-25T12:44:14.696Z,15.75
2022-11-25T12:46:46.681Z,15.78
2022-11-25T12:49:21.671Z,15.77
2022-11-25T12:52:16.905Z,15.78
2022-11-25T12:55:20.136Z,15.77
2022-11-25T12:58:29.477Z,15.70
2022-11-25T13:01:49.773Z,15.66
2022-11-25T13:05:39.460Z,15.64
2022-11-25T13:08:25.717Z,15.66
2022-11-25T13:11:27.025Z,15.57
2022-11-25T13:14:13.526Z,15.60
2022-11-25T13:16:45.234Z,15.64
2022-11-25T13:19:17.413Z,15.64
2022-11-25T13:21:59.534Z,15.60
2022-11-25T13:24:31.560Z,15.62
2022-11-25T13:27:02.214Z,15.64
2022-11-25T13:29:59.983Z,15.55
2022-11-25T13:32:34.217Z,15.56
2022-11-25T13:35:34.579Z,15.47
2022-11-25T13:38:35.730Z,15.47
2022-11-25T13:41:22.235Z,15.43
2022-11-25T13:44:04.561Z,15.48
2022-11-25T13:46:40.022Z,15.49
2022-11-25T13:49:32.716Z,15.49
2022-11-25T13:52:04.345Z,15.55
2022-11-25T13:54:40.642Z,15.55
2022-11-25T13:57:28.039Z,15.57
2022-11-25T13:59:59.381Z,15.64
2022-11-25T14:02:45.291Z,15.64
2022-11-25T14:05:59.821Z,15.60
2022-11-25T14:08:43.404Z,15.64
2022-11-25T14:11:49.154Z,15.62
2022-11-25T14:14:57.360Z,15.62
2022-11-25T14:17:47.881Z,15.65
2022-11-25T14:20:42.979Z,15.67
2022-11-25T14:23:46.989Z,15.67
2022-11-25T14:26:48.233Z,15.69
2022-11-25T14:29:22.852Z,15.69
2022-11-25T14:31:55.709Z,15.73
2022-11-25T14:34:30.683Z,15.78
2022-11-25T14:37:08.210Z,15.84
2022-11-25T14:39:45.229Z,15.87
2022-11-25T14:42:17.640Z,15.75
2022-11-25T14:44:50.312Z,15.78
2022-11-25T14:47:22.859Z,15.81
2022-11-25T14:50:18.760Z,15.78
2022-11-25T14:52:44.054Z,15.70
2022-11-25T14:55:12.686Z,15.65
2022-11-25T14:57:44.858Z,15.61
2022-11-25T15:00:16.792Z,15.61
2022-11-25T15:02:55.644Z,15.56
2022-11-25T15:05:26.887Z,15.51
2022-11-25T15:08:00.932Z,15.49
2022-11-25T15:10:41.198Z,15.48
2022-11-25T15:13:29.989Z,15.48
2022-11-25T15:16:07.397Z,15.53
2022-11-25T15:18:35.536Z,15.52
2022-11-25T15:21:04.545Z,15.51
2022-11-25T15:23:36.713Z,15.47
2022-11-25T15:26:15.173Z,15.45
2022-11-25T15:28:42.294Z,15.39
2022-11-25T15:31:18.444Z,15.30
2022-11-25T15:33:47.221Z,15.31
2022-11-25T15:36:14.385Z,15.30
2022-11-25T15:38:44.157Z,15.31
2022-11-25T15:41:21.518Z,15.33
2022-11-25T15:43:53.668Z,15.34
2022-11-25T15:46:25.089Z,15.33
2022-11-25T15:48:58.516Z,15.30
2022-11-25T15:51:37.203Z,15.26
2022-11-25T15:54:17.440Z,15.24
2022-11-25T15:56:49.863Z,15.24
2022-11-25T15:59:41.483Z,15.19
2022-11-25T16:02:50.347Z,15.18
2022-11-25T16:05:32.727Z,15.20
2022-11-25T16:08:25.778Z,15.14
2022-11-25T16:11:00.185Z,15.14
2022-11-25T16:13:34.572Z,15.09
2022-11-25T16:16:28.909Z,15.04
2022-11-25T16:19:37.616Z,15.03
2022-11-25T16:22:06.003Z,15.11
2022-11-25T16:24:38.509Z,15.13
2022-11-25T16:27:16.743Z,15.12
2022-11-25T16:30:08.169Z,15.14
2022-11-25T16:32:35.181Z,15.15
2022-11-25T16:35:15.178Z,15.19
2022-11-25T16:37:47.045Z,15.26
2022-11-25T16:40:18.144Z,15.28
2022-11-25T16:42:49.192Z,15.26
2022-11-25T16:45:20.942Z,15.21
2022-11-25T16:47:47.939Z,15.21
2022-11-25T16:50:18.841Z,15.22
2022-11-25T16:52:46.020Z,15.23
2022-11-25T16:55:13.947Z,15.26
2022-11-25T16:57:43.352Z,15.29
2022-11-25T17:00:16.738Z,15.31
2022-11-25T17:02:44.754Z,15.36
2022-11-25T17:05:19.941Z,15.39
2022-11-25T17:07:47.641Z,15.40
2022-11-25T17:10:14.874Z,15.40
2022-11-25T17:12:44.180Z,15.42
2022-11-25T17:15:17.028Z,15.43
2022-11-25T17:17:47.446Z,15.43
2022-11-25T17:20:21.386Z,15.43
2022-11-25T17:22:48.607Z,15.43
2022-11-25T17:25:15.737Z,15.41
2022-11-25T17:27:45.820Z,15.37
2022-11-25T17:30:19.299Z,15.37
2022-11-25T17:32:47.621Z,15.36
2022-11-25T17:35:20.868Z,15.35
2022-11-25T17:37:48.582Z,15.35
2022-11-25T17:40:16.215Z,15.34
2022-11-25T17:42:48.664Z,15.34
2022-11-25T17:45:19.173Z,15.31
2022-11-25T17:47:46.811Z,15.32
2022-11-25T17:50:22.097Z,15.30
2022-11-25T17:52:50.050Z,15.31
2022-11-25T17:55:19.659Z,15.30
2022-11-25T17:57:47.777Z,15.30
2022-11-25T18:00:18.813Z,15.28
2022-11-25T18:02:45.949Z,15.25
2022-11-25T18:05:17.811Z,15.23
2022-11-25T18:07:46.783Z,15.21
2022-11-25T18:10:16.252Z,15.18
2022-11-25T18:12:45.988Z,15.14
2022-11-25T18:15:18.870Z,15.08
2022-11-25T18:17:46.961Z,15.03
2022-11-25T18:20:21.197Z,14.98
2022-11-25T18:22:51.483Z,14.93
2022-11-25T18:25:23.126Z,14.90
2022-11-25T18:27:56.017Z,14.89
2022-11-25T18:30:27.224Z,14.85
2022-11-25T18:32:56.143Z,14.83
2022-11-25T18:35:29.824Z,14.83
2022-11-25T18:38:00.972Z,14.84
2022-11-25T18:40:29.842Z,14.86
2022-11-25T18:43:00.786Z,14.87
2022-11-25T18:45:33.074Z,14.88
2022-11-25T18:48:00.266Z,14.89
2022-11-25T18:50:27.637Z,14.91
2022-11-25T18:52:54.744Z,14.91
2022-11-25T18:55:24.142Z,14.93
2022-11-25T18:57:52.375Z,14.93
2022-11-25T19:00:32.249Z,14.90
2022-11-25T19:03:00.799Z,14.87
2022-11-25T19:05:31.033Z,14.85
2022-11-25T19:07:58.433Z,14.83
2022-11-25T19:10:34.372Z,14.80
2022-11-25T19:13:07.295Z,14.80
2022-11-25T19:15:37.143Z,14.76
2022-11-25T19:18:06.827Z,14.74
2022-11-25T19:20:34.261Z,14.69
2022-11-25T19:23:15.795Z,14.63
2022-11-25T19:25:45.072Z,14.60
2022-11-25T19:28:14.839Z,14.56
2022-11-25T19:30:43.030Z,14.55
2022-11-25T19:33:18.176Z,14.54
2022-11-25T19:35:45.220Z,14.53
2022-11-25T19:38:18.172Z,14.49
2022-11-25T19:40:46.523Z,14.50
2022-11-25T19:43:14.046Z,14.49
2022-11-25T19:45:41.456Z,14.46
2022-11-25T19:48:15.313Z,14.44
2022-11-25T19:50:45.423Z,14.43
2022-11-25T19:53:18.971Z,14.43
2022-11-25T19:55:48.484Z,14.42
2022-11-25T19:58:15.687Z,14.39
2022-11-25T20:00:45.720Z,14.36
2022-11-25T20:03:20.212Z,14.33
2022-11-25T20:05:47.256Z,14.32
2022-11-25T20:08:23.055Z,14.29
2022-11-25T20:10:52.314Z,14.25
2022-11-25T20:13:19.362Z,14.23
2022-11-25T20:15:46.735Z,14.18
2022-11-25T20:18:18.498Z,14.14
2022-11-25T20:20:49.923Z,14.10
2022-11-25T20:23:27.020Z,14.06
2022-11-25T20:25:55.851Z,14.03
2022-11-25T20:28:25.727Z,14.01
2022-11-25T20:30:54.483Z,14.01
2022-11-25T20:33:24.625Z,13.97
2022-11-25T20:35:59.558Z,13.95
2022-11-25T20:38:29.948Z,13.93
2022-11-25T20:41:00.163Z,13.91
2022-11-25T20:43:33.018Z,13.89
2022-11-25T20:46:02.047Z,13.87
2022-11-25T20:48:30.064Z,13.86
2022-11-25T20:51:01.361Z,13.83
2022-11-25T20:53:31.913Z,13.81
2022-11-25T20:56:00.381Z,13.77
2022-11-25T20:58:31.827Z,13.75
2022-11-25T21:00:59.668Z,13.73
2022-11-25T21:03:27.307Z,13.69
2022-11-25T21:05:55.715Z,13.68
2022-11-25T21:08:27.655Z,13.65
2022-11-25T21:10:57.613Z,13.63
2022-11-25T21:13:28.573Z,13.62
2022-11-25T21:15:59.363Z,13.61
2022-11-25T21:18:26.389Z,13.58
2022-11-25T21:20:58.188Z,13.56
2022-11-25T21:23:30.140Z,13.54
2022-11-25T21:26:06.577Z,13.51
2022-11-25T21:28:41.960Z,13.50
2022-11-25T21:31:14.189Z,13.49
2022-11-25T21:33:41.181Z,13.45
2022-11-25T21:36:17.432Z,13.43
2022-11-25T21:38:45.673Z,13.40
2022-11-25T21:41:13.027Z,13.38
2022-11-25T21:43:47.855Z,13.34
2022-11-25T21:46:20.759Z,13.32
2022-11-25T21:48:48.668Z,13.32
2022-11-25T21:51:24.122Z,13.31
2022-11-25T21:53:51.304Z,13.28
2022-11-25T21:56:25.058Z,13.26
2022-11-25T21:58:53.759Z,13.25
2022-11-25T22:01:21.897Z,13.22
2022-11-25T22:03:49.107Z,13.20
2022-11-25T22:06:22.765Z,13.17
2022-11-25T22:08:50.491Z,13.17
2022-11-25T22:11:20.999Z,13.17
2022-11-25T22:13:49.558Z,13.14
2022-11-25T22:16:26.066Z,13.13
2022-11-25T22:18:53.405Z,13.11
2022-11-25T22:21:20.346Z,13.11
2022-11-25T22:23:47.368Z,13.08
2022-11-25T22:26:20.923Z,13.05
2022-11-25T22:28:52.847Z,13.01
2022-11-25T22:31:22.907Z,12.99
2022-11-25T22:33:50.423Z,12.96
2022-11-25T22:36:34.438Z,12.92
2022-11-25T22:39:14.729Z,12.89
2022-11-25T22:41:44.488Z,12.89
2022-11-25T22:44:21.214Z,12.85
2022-11-25T22:46:50.996Z,12.85
2022-11-25T22:49:36.873Z,12.82
2022-11-25T22:52:04.314Z,12.82
2022-11-25T22:54:33.367Z,12.83
2022-11-25T22:57:00.305Z,12.81
2022-11-25T22:59:27.262Z,12.80
2022-11-25T23:01:55.742Z,12.77
2022-11-25T23:04:22.751Z,12.75
2022-11-25T23:06:51.162Z,12.74
2022-11-25T23:09:19.616Z,12.73
2022-11-25T23:11:47.841Z,12.74
2022-11-25T23:14:15.186Z,12.74
2022-11-25T23:16:42.711Z,12.74
2022-11-25T23:19:18.498Z,12.72
2022-11-25T23:21:45.943Z,12.72
2022-11-25T23:24:16.197Z,12.69
2022-11-25T23:26:43.650Z,12.70
2022-11-25T23:29:10.581Z,12.68
2022-11-25T23:31:39.938Z,12.67
2022-11-25T23:34:07.993Z,12.65
2022-11-25T23:36:46.730Z,12.61
2022-11-25T23:39:20.982Z,12.57
2022-11-25T23:41:48.916Z,12.55
2022-11-25T23:44:22.490Z,12.52
2022-11-25T23:46:51.843Z,12.51
2022-11-25T23:49:23.712Z,12.52
2022-11-25T23:51:56.140Z,12.49
2022-11-25T23:54:30.933Z,12.46
2022-11-25T23:56:58.127Z,12.47
2022-11-25T23:59:30.729Z,12.45
